TAF LFBL
LFBL 261700Z 2618/2718 21012KT 9999 BKN013 BECMG 2618/2620 4000 -RA BKN006 TEMPO 2619/2624 2000 RA BKN002 BECMG 2700/2702 9999 NSW BKN006 TEMPO 2701/2710 3000 -RADZ BKN002 BECMG 2710/2712 27012KT TEMPO 2710/2718 28015G25KT 4000 SHRA BKN004 BKN015TCU=
METAR LFBL
LFBL 270730Z AUTO 23006KT 9999 FEW005 OVC150 01/00 Q0995 TEMPO 3000 -RADZ BKN002=
LFBL 270700Z AUTO 27007KT 240V300 9999 BKN004 OVC020 02/01 Q0995 TEMPO 3000 -RADZ=
LFBL 270630Z AUTO 27005KT 9999 BKN005 BKN014 OVC140 02/01 Q0994 TEMPO 3000 -RADZ=
LFBL 270600Z AUTO 26005KT 220V290 9999 SCT003 BKN130 02/01 Q0994 TEMPO 3000 -RADZ BKN002=
LFBL 270530Z AUTO 28008KT 250V310 9999 SCT005 BKN010 BKN014 02/01 Q0994 TEMPO 3000 -RADZ BKN002=
WC LFBL
WS LFBL
WV LFBL